Time;durP1;ratioP1;P1;durP2;ratioP2;P2;SDS_P1;SDS_P2;PMS_P1;PMS_P2;Temp;Humidity;BMP_temperature;BMP_pressure;BME280_temperature;BME280_humidity;BME280_pressure;Samples;Min_cycle;Max_cycle;Signal;HPM_P1;HPM_P2
2021/08/20 00:01:11;;;;;;;0.40;0.00;;;;;;;20.48;59.28;100280.34;112566;1204;137354;-75
2021/08/20 00:03:38;;;;;;;0.40;0.00;;;;;;;20.41;59.51;100288.25;112584;1196;93871;-75
2021/08/20 00:06:05;;;;;;;0.40;0.00;;;;;;;20.37;59.55;100288.67;112621;1196;93871;-75
2021/08/20 00:08:31;;;;;;;0.40;0.00;;;;;;;20.35;59.83;100291.67;112613;1196;138089;-75
2021/08/20 00:11:02;;;;;;;0.40;0.10;;;;;;;20.30;59.70;100294.40;112711;1204;93958;-74
2021/08/20 00:13:32;;;;;;;0.40;0.00;;;;;;;20.26;59.63;100296.84;112556;1203;138041;-75
2021/08/20 00:15:59;;;;;;;0.40;0.10;;;;;;;20.23;60.12;100299.55;112617;1195;108648;-75
2021/08/20 00:18:26;;;;;;;0.40;0.10;;;;;;;20.21;59.98;100298.55;112613;1197;94365;-75
2021/08/20 00:20:53;;;;;;;0.40;0.00;;;;;;;20.20;60.13;100299.58;112511;1195;137095;-75
2021/08/20 00:23:19;;;;;;;0.40;0.00;;;;;;;20.19;60.15;100298.20;112650;1197;93830;-75
2021/08/20 00:25:46;;;;;;;0.40;0.00;;;;;;;20.13;60.00;100300.94;112530;1196;136715;-75
2021/08/20 00:28:15;;;;;;;0.40;0.00;;;;;;;20.11;60.25;100298.38;112712;1203;93966;-75
2021/08/20 00:30:41;;;;;;;0.40;0.00;;;;;;;20.16;59.98;100296.77;112664;1196;106487;-75
2021/08/20 00:33:08;;;;;;;0.40;0.00;;;;;;;20.17;59.89;100300.50;112556;1196;138364;-75
2021/08/20 00:35:35;;;;;;;0.40;0.00;;;;;;;20.12;59.97;100301.54;112635;1199;93869;-75
2021/08/20 00:38:02;;;;;;;0.40;0.00;;;;;;;20.02;60.18;100300.63;112543;1196;138314;-76
2021/08/20 00:40:28;;;;;;;0.40;0.10;;;;;;;19.94;60.50;100298.60;112790;1203;94378;-76
2021/08/20 00:42:55;;;;;;;0.40;0.00;;;;;;;19.93;60.46;100297.47;112622;1196;139475;-76
2021/08/20 00:45:22;;;;;;;0.40;0.00;;;;;;;19.92;60.64;100301.67;112617;1203;93868;-75
2021/08/20 00:47:48;;;;;;;0.40;0.10;;;;;;;19.85;60.47;100297.06;112567;1196;94755;-76
2021/08/20 00:50:15;;;;;;;0.40;0.00;;;;;;;19.78;60.72;100300.73;112432;1197;137913;-76
2021/08/20 00:52:42;;;;;;;0.40;0.00;;;;;;;19.75;60.94;100299.30;112662;1203;93897;-76
2021/08/20 00:55:09;;;;;;;0.40;0.00;;;;;;;19.78;61.07;100298.96;112442;1197;140283;-76
2021/08/20 00:57:37;;;;;;;0.40;0.00;;;;;;;19.72;60.62;100297.30;112627;1196;94116;-76
2021/08/20 01:00:04;;;;;;;0.40;0.10;;;;;;;19.66;60.94;100299.92;112740;1196;93910;-74
2021/08/20 01:02:32;;;;;;;0.40;0.10;;;;;;;19.55;61.23;100302.59;112789;1196;138166;-71
2021/08/20 01:04:59;;;;;;;0.40;0.10;;;;;;;19.53;61.48;100302.89;113287;1197;93871;-72
2021/08/20 01:07:26;;;;;;;0.40;0.00;;;;;;;19.52;61.41;100304.05;112428;1198;138153;-71
2021/08/20 01:09:52;;;;;;;0.40;0.10;;;;;;;19.48;61.54;100308.23;112551;1197;94449;-71
2021/08/20 01:12:19;;;;;;;0.40;0.10;;;;;;;19.46;61.68;100310.55;112665;1204;93898;-71
2021/08/20 01:14:49;;;;;;;0.40;0.10;;;;;;;19.39;61.65;100313.36;112446;1204;137140;-71
2021/08/20 01:17:17;;;;;;;0.40;0.10;;;;;;;19.38;61.86;100316.64;112670;1198;93868;-71
2021/08/20 01:19:43;;;;;;;0.40;0.00;;;;;;;19.46;61.57;100315.63;112548;1197;137148;-71
2021/08/20 01:22:10;;;;;;;0.40;0.00;;;;;;;19.48;61.49;100314.02;112574;1198;94003;-71
2021/08/20 01:24:38;;;;;;;0.40;0.10;;;;;;;19.46;61.62;100314.33;112618;1197;93858;-71
2021/08/20 01:27:04;;;;;;;0.40;0.00;;;;;;;19.35;61.58;100321.67;112520;1198;137214;-71
2021/08/20 01:29:32;;;;;;;0.40;0.10;;;;;;;19.27;61.86;100320.63;112708;1204;93881;-70
2021/08/20 01:31:58;;;;;;;0.40;0.10;;;;;;;19.23;61.94;100326.95;112551;1204;137194;-71
2021/08/20 01:34:25;;;;;;;0.40;0.10;;;;;;;19.16;62.07;100322.75;112692;1199;94812;-71
2021/08/20 01:36:52;;;;;;;0.40;0.10;;;;;;;19.11;62.39;100325.36;112580;1204;137612;-71
2021/08/20 01:39:18;;;;;;;0.40;0.10;;;;;;;19.11;62.25;100329.70;112653;1198;94538;-71
2021/08/20 01:41:45;;;;;;;0.40;0.10;;;;;;;19.13;62.33;100323.11;112698;1198;94282;-71
2021/08/20 01:44:11;;;;;;;0.40;0.10;;;;;;;19.06;62.39;100320.48;112555;1198;137024;-71
2021/08/20 01:46:41;;;;;;;0.40;0.10;;;;;;;18.94;62.57;100320.15;112708;1204;93898;-71
2021/08/20 01:49:10;;;;;;;0.40;0.10;;;;;;;18.84;62.67;100317.50;112562;1198;137570;-70
2021/08/20 01:51:36;;;;;;;0.40;0.10;;;;;;;18.82;62.93;100318.48;112777;1204;93944;-71
2021/08/20 01:54:03;;;;;;;0.40;0.10;;;;;;;18.88;62.92;100319.61;112735;1198;94470;-71
2021/08/20 01:56:32;;;;;;;0.40;0.10;;;;;;;18.86;62.98;100316.48;112679;1204;137323;-71
2021/08/20 01:58:59;;;;;;;0.40;0.10;;;;;;;18.70;63.19;100314.73;112767;1196;94528;-71
2021/08/20 02:01:29;;;;;;;0.40;0.10;;;;;;;18.59;63.46;100312.56;112686;1204;138179;-71
2021/08/20 02:03:56;;;;;;;0.40;0.10;;;;;;;18.51;63.79;100311.23;112726;1204;107694;-71
2021/08/20 02:06:22;;;;;;;0.40;0.10;;;;;;;18.52;63.74;100316.56;112792;1200;93974;-71
2021/08/20 02:08:49;;;;;;;0.40;0.10;;;;;;;18.50;63.67;100316.70;112652;1198;137225;-71
2021/08/20 02:11:16;;;;;;;0.40;0.10;;;;;;;18.45;63.93;100313.39;112752;1203;93992;-69
2021/08/20 02:13:43;;;;;;;0.40;0.10;;;;;;;18.45;64.28;100313.42;112468;1197;137516;-69
2021/08/20 02:16:10;;;;;;;0.40;0.10;;;;;;;18.45;64.01;100308.73;112791;1204;94041;-72
2021/08/20 02:18:36;;;;;;;0.40;0.10;;;;;;;18.40;64.17;100306.32;112738;1204;106655;-71
2021/08/20 02:21:03;;;;;;;0.40;0.10;;;;;;;18.32;64.26;100306.30;112633;1196;136986;-69
2021/08/20 02:23:32;;;;;;;0.40;0.10;;;;;;;18.26;64.48;100304.65;112722;1196;94565;-71
2021/08/20 02:25:59;;;;;;;0.40;0.10;;;;;;;18.24;64.58;100307.98;112620;1204;137955;-71
2021/08/20 02:28:26;;;;;;;0.40;0.10;;;;;;;18.21;64.63;100304.58;112700;1198;93944;-69
2021/08/20 02:30:53;;;;;;;0.40;0.10;;;;;;;18.17;64.64;100304.64;112677;1196;138094;-71
2021/08/20 02:33:20;;;;;;;0.40;0.10;;;;;;;18.11;64.74;100306.64;112800;1204;94159;-69
2021/08/20 02:35:46;;;;;;;0.40;0.10;;;;;;;18.10;64.75;100306.88;112737;1204;94379;-70
2021/08/20 02:38:13;;;;;;;0.40;0.10;;;;;;;18.17;64.51;100303.92;112650;1204;137925;-71
2021/08/20 02:40:40;;;;;;;0.40;0.10;;;;;;;18.29;64.15;100307.35;112746;1196;93862;-71
2021/08/20 02:43:06;;;;;;;0.40;0.10;;;;;;;18.33;63.96;100308.70;112636;1196;137370;-71
2021/08/20 02:45:33;;;;;;;0.40;0.10;;;;;;;18.26;64.23;100308.23;112749;1204;94438;-71
2021/08/20 02:48:00;;;;;;;0.40;0.10;;;;;;;18.17;64.61;100308.95;112752;1204;94414;-71
2021/08/20 02:50:26;;;;;;;0.40;0.10;;;;;;;18.08;64.70;100305.72;112617;1204;138725;-71
2021/08/20 02:52:53;;;;;;;0.40;0.10;;;;;;;18.01;64.87;100311.88;112800;1196;93936;-71
2021/08/20 02:55:21;;;;;;;0.40;0.10;;;;;;;18.07;64.63;100318.72;112593;1196;137191;-71
2021/08/20 02:57:48;;;;;;;0.40;0.10;;;;;;;18.07;64.68;100323.02;112686;1204;94489;-71
2021/08/20 03:00:15;;;;;;;0.40;0.10;;;;;;;18.11;64.79;100319.74;112744;1203;93873;-71
2021/08/20 03:02:42;;;;;;;0.40;0.10;;;;;;;18.07;64.77;100319.42;112560;1198;138281;-71
2021/08/20 03:05:09;;;;;;;0.40;0.10;;;;;;;17.98;65.00;100319.27;112745;1195;94521;-71
2021/08/20 03:07:35;;;;;;;0.40;0.10;;;;;;;17.90;64.95;100323.43;112615;1203;139110;-71
2021/08/20 03:10:03;;;;;;;0.40;0.10;;;;;;;17.86;65.11;100322.39;112738;1203;94610;-71
2021/08/20 03:12:30;;;;;;;0.40;0.10;;;;;;;17.88;65.27;100320.65;112804;1196;93971;-71
2021/08/20 03:14:57;;;;;;;0.40;0.10;;;;;;;17.98;65.16;100318.52;112697;1198;137032;-71
2021/08/20 03:17:23;;;;;;;0.40;0.10;;;;;;;17.92;65.17;100317.23;112753;1204;94514;-71
2021/08/20 03:19:55;;;;;;;0.40;0.10;;;;;;;17.93;65.09;100319.20;112645;1196;137723;-70
2021/08/20 03:22:22;;;;;;;0.40;0.10;;;;;;;17.98;65.07;100312.96;112738;1203;108576;-69
2021/08/20 03:24:48;;;;;;;0.40;0.10;;;;;;;17.97;65.03;100315.73;112685;1196;94034;-70
2021/08/20 03:27:15;;;;;;;0.40;0.10;;;;;;;17.90;65.01;100316.06;112663;1196;137170;-70
2021/08/20 03:29:42;;;;;;;0.40;0.10;;;;;;;17.89;65.15;100316.27;112787;1203;93967;-71
2021/08/20 03:32:08;;;;;;;0.40;0.10;;;;;;;17.88;65.25;100317.77;112684;1196;137684;-71
2021/08/20 03:34:35;;;;;;;0.40;0.10;;;;;;;17.88;65.19;100318.11;112765;1196;108703;-71
2021/08/20 03:37:02;;;;;;;0.40;0.10;;;;;;;17.87;65.33;100318.20;112626;1198;138093;-71
2021/08/20 03:39:29;;;;;;;0.40;0.10;;;;;;;17.92;65.08;100315.05;112728;1204;94125;-71
2021/08/20 03:41:55;;;;;;;0.40;0.10;;;;;;;17.94;65.13;100323.23;112768;1198;94011;-71
2021/08/20 03:44:22;;;;;;;0.40;0.10;;;;;;;17.93;65.26;100322.56;112635;1200;137701;-71
2021/08/20 03:46:49;;;;;;;0.40;0.10;;;;;;;17.93;65.25;100319.17;112795;1196;94058;-71
2021/08/20 03:49:15;;;;;;;0.40;0.10;;;;;;;17.98;65.14;100319.80;112692;1198;138246;-68
2021/08/20 03:51:42;;;;;;;0.40;0.10;;;;;;;17.96;65.25;100320.80;112747;1204;94024;-71
2021/08/20 03:54:10;;;;;;;0.40;0.10;;;;;;;17.93;65.49;100321.71;112716;1197;94339;-68
2021/08/20 03:56:37;;;;;;;0.40;0.10;;;;;;;17.94;65.50;100318.73;112624;1196;137565;-71
2021/08/20 03:59:04;;;;;;;0.40;0.10;;;;;;;17.92;65.75;100320.84;112727;1204;93995;-69
2021/08/20 04:01:30;;;;;;;0.40;0.10;;;;;;;17.85;65.99;100320.14;112684;1203;138287;-70
2021/08/20 04:03:58;;;;;;;0.40;0.10;;;;;;;17.80;66.15;100319.71;112729;1203;94008;-70
2021/08/20 04:06:24;;;;;;;0.40;0.10;;;;;;;17.76;66.28;100318.48;112730;1203;93928;-71
2021/08/20 04:08:51;;;;;;;0.40;0.10;;;;;;;17.75;66.48;100318.73;112687;1204;137730;-71
2021/08/20 04:11:18;;;;;;;0.40;0.10;;;;;;;17.75;66.74;100316.42;112729;1204;107847;-69
2021/08/20 04:13:47;;;;;;;0.40;0.10;;;;;;;17.81;66.45;100318.20;112623;1197;138093;-69
2021/08/20 04:16:13;;;;;;;0.40;0.10;;;;;;;17.91;66.33;100323.01;112706;1198;94037;-70
2021/08/20 04:18:41;;;;;;;0.40;0.10;;;;;;;18.03;65.96;100321.46;112616;1198;94531;-71
2021/08/20 04:21:08;;;;;;;0.40;0.10;;;;;;;18.19;65.71;100326.98;112588;1204;136922;-70
2021/08/20 04:23:35;;;;;;;0.40;0.10;;;;;;;18.24;65.74;100330.51;112711;1198;93981;-70
2021/08/20 04:26:02;;;;;;;0.40;0.10;;;;;;;18.28;65.48;100329.17;112577;1197;138821;-70
2021/08/20 04:28:29;;;;;;;0.40;0.10;;;;;;;18.37;65.37;100324.50;112790;1196;93885;-71
2021/08/20 04:30:56;;;;;;;0.40;0.10;;;;;;;18.39;65.53;100330.98;112608;1204;137076;-70
2021/08/20 04:33:23;;;;;;;0.40;0.10;;;;;;;18.36;65.67;100327.61;112711;1196;93851;-69
2021/08/20 04:35:53;;;;;;;0.40;0.10;;;;;;;18.33;66.03;100330.50;112759;1204;94089;-71
2021/08/20 04:38:19;;;;;;;0.40;0.10;;;;;;;18.41;65.84;100329.12;112553;1197;137864;-71
2021/08/20 04:40:46;;;;;;;0.40;0.10;;;;;;;18.52;65.82;100332.05;112670;1198;94180;-68
2021/08/20 04:43:12;;;;;;;0.40;0.10;;;;;;;18.49;65.82;100330.03;112413;1196;137117;-68
2021/08/20 04:45:39;;;;;;;0.40;0.10;;;;;;;18.43;66.10;100333.08;112749;1203;93872;-70
2021/08/20 04:48:06;;;;;;;0.40;0.10;;;;;;;18.43;65.92;100336.55;112808;1204;93987;-70
2021/08/20 04:50:32;;;;;;;0.40;0.10;;;;;;;18.46;65.93;100336.54;112616;1197;137487;-70
2021/08/20 04:52:59;;;;;;;0.40;0.10;;;;;;;18.45;66.22;100337.11;112678;1199;93980;-70
2021/08/20 04:55:26;;;;;;;0.40;0.10;;;;;;;18.42;66.18;100334.77;112571;1204;137542;-70
2021/08/20 04:57:53;;;;;;;0.40;0.10;;;;;;;18.46;66.20;100329.86;112709;1204;93982;-70
2021/08/20 05:00:19;;;;;;;0.40;0.10;;;;;;;18.52;66.14;100327.89;112677;1198;95159;-70
2021/08/20 05:02:49;;;;;;;0.40;0.10;;;;;;;18.48;65.98;100330.27;112699;1204;137699;-70
2021/08/20 05:05:16;;;;;;;0.40;0.10;;;;;;;18.46;66.23;100329.52;112738;1196;108496;-69
2021/08/20 05:07:43;;;;;;;0.40;0.10;;;;;;;18.43;66.48;100333.66;112586;1204;137483;-69
2021/08/20 05:10:11;;;;;;;0.40;0.10;;;;;;;18.46;66.29;100331.31;112707;1198;93972;-70
2021/08/20 05:12:39;;;;;;;0.40;0.10;;;;;;;18.52;66.36;100327.52;112703;1196;93958;-70
2021/08/20 05:15:07;;;;;;;0.40;0.10;;;;;;;18.58;66.15;100327.02;112632;1204;137501;-70
2021/08/20 05:17:33;;;;;;;0.40;0.10;;;;;;;18.54;66.32;100326.89;112710;1203;107085;-70
2021/08/20 05:20:00;;;;;;;0.40;0.10;;;;;;;18.61;66.55;100328.79;112578;1197;138278;-71
2021/08/20 05:22:42;;;;;;;0.40;0.10;;;;;;;18.75;66.26;100324.66;112707;1203;94565;-69
2021/08/20 05:25:12;;;;;;;0.40;0.10;;;;;;;18.90;65.84;100330.83;112578;1204;137469;-70
2021/08/20 05:27:39;;;;;;;0.40;0.10;;;;;;;18.97;65.54;100330.77;112685;1204;93917;-68
2021/08/20 05:30:06;;;;;;;0.40;0.10;;;;;;;19.02;65.79;100333.33;112715;1197;93852;-70
2021/08/20 05:32:33;;;;;;;0.40;0.10;;;;;;;19.01;65.80;100338.23;112574;1204;138238;-70
2021/08/20 05:35:00;;;;;;;0.40;0.10;;;;;;;19.07;65.84;100334.80;112589;1196;94427;-70
2021/08/20 05:37:27;;;;;;;0.40;0.10;;;;;;;19.12;65.94;100333.96;112427;1198;139102;-70
2021/08/20 05:39:53;;;;;;;0.40;0.10;;;;;;;19.12;66.19;100332.49;112586;1198;94091;-70
2021/08/20 05:42:20;;;;;;;0.40;0.10;;;;;;;19.18;66.20;100331.76;112791;1204;94395;-71
2021/08/20 05:44:47;;;;;;;0.40;0.10;;;;;;;19.29;66.14;100334.85;112589;1198;137733;-71
2021/08/20 05:47:13;;;;;;;0.40;0.00;;;;;;;19.41;66.02;100334.66;112675;1196;94136;-71
2021/08/20 05:49:40;;;;;;;0.40;0.10;;;;;;;19.51;65.77;100328.08;112616;1196;136947;-71
2021/08/20 05:52:07;;;;;;;0.40;0.10;;;;;;;19.62;65.63;100330.40;112697;1197;94002;-70
2021/08/20 05:54:35;;;;;;;0.40;0.10;;;;;;;19.77;65.55;100336.13;112770;1198;94287;-70
2021/08/20 05:57:01;;;;;;;0.40;0.00;;;;;;;19.85;65.16;100339.34;112661;1198;138755;-70
2021/08/20 05:59:28;;;;;;;0.40;0.10;;;;;;;19.96;64.93;100341.19;112680;1199;93998;-71
2021/08/20 06:01:55;;;;;;;0.40;0.10;;;;;;;20.09;65.01;100343.04;112647;1204;137225;-70
2021/08/20 06:04:22;;;;;;;0.40;0.10;;;;;;;20.18;64.92;100337.21;112692;1203;94086;-71
2021/08/20 06:06:51;;;;;;;0.40;0.10;;;;;;;20.28;64.15;100338.33;112737;1203;94463;-70
2021/08/20 06:09:18;;;;;;;0.40;0.00;;;;;;;20.41;63.87;100336.73;112567;1195;137357;-70
2021/08/20 06:11:44;;;;;;;0.40;0.10;;;;;;;20.50;64.10;100335.93;112679;1197;94053;-71
2021/08/20 06:14:11;;;;;;;0.40;0.10;;;;;;;20.59;64.33;100337.67;112601;1195;137245;-70
2021/08/20 06:16:38;;;;;;;0.40;0.10;;;;;;;20.72;63.43;100341.67;112700;1198;93888;-70
2021/08/20 06:19:04;;;;;;;0.40;0.10;;;;;;;20.75;62.79;100342.15;112575;1204;138621;-71
2021/08/20 06:21:31;;;;;;;0.40;0.10;;;;;;;20.80;62.71;100340.17;112721;1198;94386;-71
2021/08/20 06:23:57;;;;;;;0.40;0.10;;;;;;;20.84;62.53;100339.02;112648;1204;107422;-70
2021/08/20 06:26:24;;;;;;;0.40;0.10;;;;;;;20.88;62.50;100344.30;112602;1196;137452;-71
2021/08/20 06:28:51;;;;;;;0.40;0.00;;;;;;;20.97;62.55;100346.42;112681;1203;93998;-71
2021/08/20 06:31:17;;;;;;;0.40;0.10;;;;;;;21.01;62.27;100346.65;112641;1203;137486;-70
2021/08/20 06:33:44;;;;;;;0.40;0.00;;;;;;;21.01;62.00;100353.54;112782;1204;93904;-71
2021/08/20 06:36:11;;;;;;;0.40;0.00;;;;;;;21.01;61.56;100352.41;112589;1199;108215;-70
2021/08/20 06:38:37;;;;;;;0.40;0.10;;;;;;;21.02;61.10;100356.00;112569;1196;137645;-70
2021/08/20 06:41:04;;;;;;;0.40;0.00;;;;;;;20.99;61.05;100355.63;112735;1204;93851;-70
2021/08/20 06:43:30;;;;;;;0.40;0.10;;;;;;;21.08;61.17;100359.32;112619;1198;137531;-70
2021/08/20 06:45:57;;;;;;;0.40;0.00;;;;;;;21.14;61.08;100358.20;112769;1204;94012;-71
2021/08/20 06:48:24;;;;;;;0.40;0.00;;;;;;;21.20;61.37;100362.52;112692;1204;109183;-71
2021/08/20 06:50:52;;;;;;;0.40;0.00;;;;;;;21.31;61.26;100367.63;112592;1197;137135;-70
2021/08/20 06:53:19;;;;;;;0.40;0.00;;;;;;;21.30;61.18;100364.69;112712;1198;93986;-68
2021/08/20 06:55:45;;;;;;;0.40;0.00;;;;;;;21.33;61.08;100365.33;112615;1204;137792;-71
2021/08/20 06:58:12;;;;;;;0.40;0.00;;;;;;;21.34;60.48;100367.62;112671;1204;93997;-71
2021/08/20 07:00:38;;;;;;;0.40;0.00;;;;;;;21.40;60.62;100366.63;112688;1204;93880;-71
2021/08/20 07:03:05;;;;;;;0.40;0.00;;;;;;;21.42;60.66;100365.08;112668;1197;136993;-68
2021/08/20 07:05:33;;;;;;;0.40;0.00;;;;;;;21.52;60.77;100363.44;112672;1204;93891;-71
2021/08/20 07:08:00;;;;;;;0.40;0.00;;;;;;;21.58;60.27;100362.52;112528;1204;137590;-70
2021/08/20 07:10:26;;;;;;;0.40;0.00;;;;;;;21.56;59.77;100366.48;112702;1204;93989;-70
2021/08/20 07:12:53;;;;;;;0.40;0.00;;;;;;;21.52;59.27;100370.33;112659;1204;94030;-71
2021/08/20 07:15:21;;;;;;;0.40;0.00;;;;;;;21.48;59.57;100371.11;112576;1196;136919;-70
2021/08/20 07:17:47;;;;;;;0.40;0.00;;;;;;;21.47;59.37;100371.36;112681;1200;94384;-70
2021/08/20 07:20:14;;;;;;;0.40;0.00;;;;;;;21.44;59.23;100374.30;112653;1204;137693;-71
2021/08/20 07:22:44;;;;;;;0.40;0.00;;;;;;;21.45;59.40;100380.90;112637;1200;94407;-71
2021/08/20 07:25:11;;;;;;;0.40;0.00;;;;;;;21.47;59.37;100383.83;112619;1198;139198;-71
2021/08/20 07:27:38;;;;;;;0.40;0.00;;;;;;;21.46;59.57;100384.45;113003;1195;93890;-70
2021/08/20 07:30:05;;;;;;;0.40;0.00;;;;;;;21.55;60.10;100390.14;112610;1199;93901;-71
2021/08/20 07:32:32;;;;;;;0.40;0.00;;;;;;;21.63;59.52;100392.66;112666;1198;136957;-70
2021/08/20 07:34:59;;;;;;;0.40;0.00;;;;;;;21.64;59.04;100396.03;112816;1198;93881;-70
2021/08/20 07:37:28;;;;;;;0.40;0.00;;;;;;;21.64;58.88;100402.14;112710;1197;138766;-70
2021/08/20 07:39:55;;;;;;;0.40;0.00;;;;;;;21.64;59.02;100399.06;112794;1199;93850;-70
2021/08/20 07:42:22;;;;;;;0.40;0.00;;;;;;;21.66;59.44;100399.64;112836;1196;94845;-71
2021/08/20 07:44:50;;;;;;;0.40;0.00;;;;;;;21.64;58.96;100401.09;112748;1203;136979;-68
2021/08/20 07:47:17;;;;;;;0.40;0.00;;;;;;;21.61;59.08;100402.21;112886;1203;94441;-70
2021/08/20 07:49:44;;;;;;;0.40;0.00;;;;;;;21.62;59.06;100400.88;112791;1196;137737;-70
2021/08/20 07:52:11;;;;;;;0.40;0.00;;;;;;;21.70;59.12;100402.97;112883;1195;94214;-70
2021/08/20 07:54:38;;;;;;;0.40;0.00;;;;;;;21.77;59.01;100405.78;112717;1198;93968;-70
2021/08/20 07:57:05;;;;;;;0.40;0.00;;;;;;;21.75;58.74;100411.17;112662;1198;137059;-70
2021/08/20 07:59:32;;;;;;;0.40;0.00;;;;;;;21.75;58.89;100408.23;112749;1198;94519;-71
2021/08/20 08:01:58;;;;;;;0.40;0.00;;;;;;;21.76;58.88;100408.70;112668;1199;137979;-68
2021/08/20 08:04:26;;;;;;;0.40;0.00;;;;;;;21.79;58.94;100412.47;112809;1203;94028;-71
2021/08/20 08:06:52;;;;;;;0.40;0.00;;;;;;;21.80;58.72;100412.56;112777;1195;93918;-71
2021/08/20 08:09:19;;;;;;;0.40;0.00;;;;;;;21.79;58.67;100409.73;112707;1199;136686;-71
2021/08/20 08:11:46;;;;;;;0.40;0.00;;;;;;;21.85;58.88;100412.95;112818;1203;94435;-71
2021/08/20 08:14:12;;;;;;;0.40;0.00;;;;;;;21.96;58.80;100412.11;112611;1204;138008;-70
2021/08/20 08:16:41;;;;;;;0.40;0.00;;;;;;;22.03;59.12;100411.27;112810;1203;94307;-71
2021/08/20 08:19:08;;;;;;;0.40;0.00;;;;;;;22.21;59.09;100411.18;112754;1200;138096;-69
2021/08/20 08:21:35;;;;;;;0.40;0.00;;;;;;;22.31;58.62;100412.55;112870;1204;94392;-71
2021/08/20 08:24:02;;;;;;;0.40;0.00;;;;;;;22.30;57.69;100415.18;112868;1203;94407;-71
2021/08/20 08:26:28;;;;;;;0.40;0.00;;;;;;;22.32;57.67;100415.41;112750;1195;137505;-68
2021/08/20 08:28:55;;;;;;;0.40;0.00;;;;;;;22.38;57.48;100414.45;112888;1203;94400;-71
2021/08/20 08:31:23;;;;;;;0.40;0.00;;;;;;;22.48;58.15;100412.45;112710;1203;137126;-71
2021/08/20 08:33:51;;;;;;;0.40;0.00;;;;;;;22.56;57.20;100413.80;112707;1203;94029;-71
2021/08/20 08:36:18;;;;;;;0.40;0.00;;;;;;;22.61;56.84;100412.69;112740;1196;93875;-69
2021/08/20 08:38:45;;;;;;;0.40;0.00;;;;;;;22.64;56.62;100414.28;112544;1200;137993;-71
2021/08/20 08:41:12;;;;;;;0.40;0.00;;;;;;;22.66;56.20;100409.77;112766;1199;95870;-71
2021/08/20 08:43:38;;;;;;;0.40;0.00;;;;;;;22.68;56.33;100408.72;112721;1203;137149;-69
2021/08/20 08:46:09;;;;;;;0.40;0.00;;;;;;;22.71;56.17;100409.02;112724;1199;107895;-72
2021/08/20 08:48:40;;;;;;;0.40;0.00;;;;;;;22.78;56.58;100409.98;112811;1200;93943;-69
2021/08/20 08:51:09;;;;;;;0.40;0.00;;;;;;;22.83;56.64;100407.77;112746;1203;137826;-70
2021/08/20 08:53:37;;;;;;;0.40;0.00;;;;;;;22.92;56.61;100412.85;112891;1198;108736;-71
2021/08/20 08:56:04;;;;;;;0.40;0.00;;;;;;;22.95;56.38;100411.92;112733;1203;139413;-70
2021/08/20 08:58:30;;;;;;;0.40;0.00;;;;;;;22.97;56.37;100413.60;112877;1204;94621;-69
2021/08/20 09:00:57;;;;;;;0.40;0.00;;;;;;;23.01;56.59;100419.78;112841;1203;138014;-71
2021/08/20 09:03:28;;;;;;;0.40;0.00;;;;;;;23.05;56.45;100419.96;112915;1195;94056;-71
2021/08/20 09:05:58;;;;;;;0.40;0.00;;;;;;;23.10;56.12;100421.63;112731;1204;107213;-71
2021/08/20 09:08:27;;;;;;;0.40;0.00;;;;;;;23.06;56.12;100424.23;112724;1203;137119;-71
2021/08/20 09:10:57;;;;;;;0.40;0.00;;;;;;;23.04;55.99;100425.86;112944;1200;94003;-71
2021/08/20 09:13:30;;;;;;;0.40;0.00;;;;;;;23.06;55.82;100426.29;112721;1204;137502;-71
2021/08/20 09:16:08;;;;;;;0.40;0.00;;;;;;;23.13;56.03;100425.34;112903;1203;108149;-71
2021/08/20 09:18:35;;;;;;;0.40;0.00;;;;;;;23.19;55.54;100424.05;112902;1203;94105;-71
2021/08/20 09:21:02;;;;;;;0.40;0.10;;;;;;;23.26;55.06;100422.73;112702;1205;136935;-71
2021/08/20 09:23:29;;;;;;;0.40;0.10;;;;;;;23.74;54.06;100423.24;112821;1206;93955;-72
2021/08/20 09:25:56;;;;;;;0.40;0.00;;;;;;;24.72;51.66;100421.72;112693;1197;137871;-71
2021/08/20 09:28:28;;;;;;;0.40;0.10;;;;;;;25.96;49.86;100418.11;112798;1198;94067;-71
2021/08/20 09:30:54;;;;;;;0.40;0.00;;;;;;;27.41;46.57;100419.61;112857;1198;94334;-71
2021/08/20 09:33:36;;;;;;;0.40;0.00;;;;;;;28.39;42.93;100420.76;112794;1203;136717;-72
2021/08/20 09:36:08;;;;;;;0.40;0.00;;;;;;;29.24;41.40;100416.40;112741;1204;98914;-72
2021/08/20 09:38:41;;;;;;;0.40;0.00;;;;;;;30.09;40.15;100419.63;112654;1195;137200;-71
2021/08/20 09:41:12;;;;;;;0.40;0.00;;;;;;;30.89;38.42;100417.70;112835;1195;93889;-72
2021/08/20 09:43:41;;;;;;;0.40;0.00;;;;;;;31.58;37.40;100410.25;112723;1203;137300;-71
2021/08/20 09:46:10;;;;;;;0.40;0.00;;;;;;;32.11;36.23;100410.55;112898;1204;108136;-72
2021/08/20 09:48:41;;;;;;;0.40;0.00;;;;;;;32.62;35.29;100412.60;112931;1200;93895;-71
2021/08/20 09:51:31;;;;;;;0.40;0.00;;;;;;;33.08;34.39;100407.04;112820;1204;137423;-71
2021/08/20 09:54:02;;;;;;;0.40;0.00;;;;;;;33.38;33.59;100402.31;113073;1196;99926;-72
2021/08/20 09:56:36;;;;;;;0.40;0.00;;;;;;;32.86;34.12;100403.14;112778;1204;136924;-72
2021/08/20 09:59:05;;;;;;;0.40;0.00;;;;;;;32.36;34.93;100403.23;112880;1196;94458;-72
2021/08/20 10:01:44;;;;;;;0.40;0.00;;;;;;;32.13;35.14;100403.89;112764;1195;137161;-72
2021/08/20 10:04:16;;;;;;;0.40;0.00;;;;;;;31.78;36.20;100402.79;112941;1198;100182;-71
2021/08/20 10:07:02;;;;;;;0.40;0.00;;;;;;;31.57;36.56;100392.75;111515;1211;634147;-72
2021/08/20 10:09:29;;;;;;;0.40;0.00;;;;;;;31.88;36.29;100393.90;112293;1202;94545;-72
2021/08/20 10:11:59;;;;;;;0.40;0.00;;;;;;;31.27;36.37;100391.71;112375;1211;94000;-70
2021/08/20 10:14:28;;;;;;;0.40;0.00;;;;;;;30.45;37.84;100388.46;112272;1202;137419;-70
2021/08/20 10:16:54;;;;;;;0.40;0.00;;;;;;;30.51;38.25;100388.13;112315;1206;108654;-72
2021/08/20 10:19:22;;;;;;;0.40;0.00;;;;;;;30.26;38.24;100386.30;112225;1202;136603;-71
2021/08/20 10:21:48;;;;;;;0.40;0.00;;;;;;;29.64;39.47;100392.29;112345;1205;93941;-72
2021/08/20 10:24:15;;;;;;;0.40;0.00;;;;;;;29.05;40.74;100387.30;112322;1210;93907;-71
2021/08/20 10:26:46;;;;;;;0.40;0.00;;;;;;;28.39;41.33;100386.92;112180;1202;137065;-71
2021/08/20 10:29:13;;;;;;;0.40;0.00;;;;;;;29.27;40.69;100379.17;112300;1210;105884;-72
2021/08/20 10:31:42;;;;;;;0.40;0.00;;;;;;;30.75;38.73;100380.20;112290;1202;137486;-71
2021/08/20 10:34:31;;;;;;;0.40;0.00;;;;;;;31.96;35.93;100380.48;112407;1208;93905;-72
2021/08/20 10:37:09;;;;;;;0.40;0.00;;;;;;;32.94;34.21;100377.16;112339;1208;99814;-72
2021/08/20 10:39:37;;;;;;;0.40;0.00;;;;;;;34.05;32.70;100370.52;112168;1202;136366;-72
2021/08/20 10:42:07;;;;;;;0.40;0.00;;;;;;;34.84;31.64;100371.44;112389;1201;93891;-72
2021/08/20 10:44:35;;;;;;;0.40;0.00;;;;;;;35.54;30.04;100371.53;112239;1202;137818;-72
2021/08/20 10:47:02;;;;;;;0.40;0.00;;;;;;;36.11;28.77;100369.80;112385;1209;99968;-72
2021/08/20 10:49:36;;;;;;;0.40;0.00;;;;;;;36.58;28.12;100371.95;112233;1202;137530;-72
2021/08/20 10:52:03;;;;;;;0.40;0.00;;;;;;;36.60;27.35;100371.83;112359;1209;93878;-72
2021/08/20 10:54:33;;;;;;;0.40;0.00;;;;;;;36.83;27.07;100370.30;112357;1201;94479;-73
2021/08/20 10:57:01;;;;;;;0.40;0.00;;;;;;;35.83;27.50;100368.11;112237;1202;136996;-72
2021/08/20 10:59:37;;;;;;;0.40;0.00;;;;;;;34.48;29.94;100368.48;112389;1208;98676;-73
2021/08/20 11:02:19;;;;;;;0.40;0.00;;;;;;;33.36;31.70;100371.30;112217;1209;136564;-72
2021/08/20 11:04:55;;;;;;;0.40;0.00;;;;;;;32.25;32.86;100379.45;112377;1206;93925;-72
2021/08/20 11:07:43;;;;;;;0.40;0.00;;;;;;;31.36;34.41;100376.77;112197;1210;137703;-72
2021/08/20 11:10:10;;;;;;;0.40;0.00;;;;;;;30.63;35.77;100373.89;112386;1202;98023;-72
2021/08/20 11:12:41;;;;;;;0.40;0.00;;;;;;;30.21;37.27;100368.57;112363;1209;93855;-72
2021/08/20 11:15:17;;;;;;;0.40;0.00;;;;;;;29.90;37.70;100368.19;112269;1208;137053;-72
2021/08/20 11:18:17;;;;;;;0.40;0.00;;;;;;;29.45;38.32;100365.01;112354;1201;108591;-72